Impacts METAR Board
IDs:

KMEM - Memphis Intl, TN, US

Updated at: 0200 UTC 23 Sep 2018
Potential Impact None Slight Moderate High
Time 22/14Z 22/15Z 22/16Z 22/17Z 22/18Z 22/19Z 22/20Z 22/21Z 22/22Z 22/23Z 23/00Z 23/01Z 23/02Z
Temp69 68 70 70 69 69 69 68 68 68 68 68 68
Dewpt68 68 69 69 68 67 67 67 66 66 66 65 66
Altim30.06 30.06 30.07 30.07 30.05 30.02 30.02 30.02 30.02 30.01 30.01 30.02 30.04
VIS7 10 10 10 5 10 10 10 10 10 10 10 10
CIG5 4 4 4 4 5 5 6 6 7 7 8 8
CoverOVCOVCOVCOVCOVCOVCOVCOVCOVCOVCOVCOVCOVC
FltCatIFRLIFRLIFRLIFRLIFRIFRIFRIFRIFRIFRIFRIFRIFR
WX-RA------BR---------------RA
WDir5040403603036010202030405060
WSpd11 10 7 6 9 9 7 8 7 11 9 7 8
WGst-- -- -- -- -- -- -- -- -- -- -- -- --
Raw hourly METARs
KMEM 221354Z 05011KT 7SM -RA OVC005 21/20 A3006 RMK AO2 RAB02 SLP177 P0001 T02060200
KMEM 221454Z 04010KT 10SM OVC004 20/20 A3006 RMK AO2 RAE39 SLP176 P0001 60002 T02000200 50005
KMEM 221554Z 04007KT 10SM OVC004 21/21 A3007 RMK AO2 SLP179 T02110206
KMEM 221654Z 36006KT 10SM OVC004 21/21 A3007 RMK AO2 SLP178 T02110206
KMEM 221754Z 03009KT 5SM BR OVC004 21/20 A3005 RMK AO2 SLP173 60002 T02060200 10228 20200 56006
KMEM 221903Z 36009KT 10SM OVC005 21/19 A3002 RMK AO2 T02060194
KMEM 221954Z 01007KT 10SM OVC005 21/19 A3002 RMK AO2 LTG DSNT E-S SLP163 T02060194
KMEM 222054Z 02008KT 10SM OVC006 20/19 A3002 RMK AO2 SLP161 T02000194 56011
KMEM 222154Z 02007KT 10SM OVC006 20/19 A3002 RMK AO2 SLP162 T02000189
KMEM 222254Z 03011KT 10SM OVC007 20/19 A3001 RMK AO2 SLP160 T02000189
KMEM 222354Z 04009KT 10SM OVC007 20/19 A3001 RMK AO2 SLP160 T02000189 10206 20200 58001
KMEM 230054Z 05007KT 10SM OVC008 20/18 A3002 RMK AO2 SLP163 T02000183
KMEM 230154Z 06008KT 10SM -RA OVC008 20/19 A3004 RMK AO2 RAB49 SLP169 P0000 T02000189



Page loaded:  02:17 UTC  |   07:17 PM Pacific  |   08:17 PM Mountain  |   09:17 PM Central  |   10:17 PM Eastern

 

ADVISORIES

FORECASTS

FORECASTS

OBSERVATIONS

USER TOOLS

ABOUT US